createdAt,value
2022-12-09T00:04:11.345Z,98649.50
2022-12-09T00:09:04.045Z,98652.84
2022-12-09T00:13:58.682Z,98640.19
2022-12-09T00:18:51.370Z,98646.50
2022-12-09T00:23:43.405Z,98644.69
2022-12-09T00:28:35.355Z,98628.53
2022-12-09T00:33:27.485Z,98642.78
2022-12-09T00:38:19.138Z,98642.28
2022-12-09T00:43:10.937Z,98639.44
2022-12-09T00:48:02.627Z,98620.44
2022-12-09T00:52:54.593Z,98622.75
2022-12-09T00:57:46.374Z,98633.75
2022-12-09T01:02:38.290Z,98622.47
2022-12-09T01:07:30.371Z,98628.78
2022-12-09T01:12:22.279Z,98623.81
2022-12-09T01:17:14.360Z,98616.50
2022-12-09T01:22:06.370Z,98613.47
2022-12-09T01:26:58.064Z,98612.63
2022-12-09T01:31:50.049Z,98612.63
2022-12-09T01:36:41.861Z,98594.84
2022-12-09T01:41:34.465Z,98592.88
2022-12-09T01:46:26.220Z,98595.81
2022-12-09T01:51:20.135Z,98600.16
2022-12-09T01:56:24.868Z,98598.94
2022-12-09T02:01:18.387Z,98594.53
2022-12-09T02:06:10.502Z,98605.19
2022-12-09T02:11:23.574Z,98590.66
2022-12-09T02:16:20.205Z,98601.66
2022-12-09T02:21:36.955Z,98614.03
2022-12-09T02:26:43.875Z,98622.06
2022-12-09T02:32:00.336Z,98613.78
2022-12-09T02:37:10.558Z,98605.66
2022-12-09T02:42:06.718Z,98602.31
2022-12-09T02:46:59.712Z,98605.34
2022-12-09T02:51:52.250Z,98595.72
2022-12-09T02:56:52.374Z,98597.69
2022-12-09T03:02:08.313Z,98585.41
2022-12-09T03:07:34.134Z,98582.41
2022-12-09T03:12:31.339Z,98574.66
2022-12-09T03:17:32.653Z,98589.97
2022-12-09T03:22:28.602Z,98585.34
2022-12-09T03:27:32.356Z,98578.69
2022-12-09T03:32:26.866Z,98576.72
2022-12-09T03:37:21.306Z,98570.25
2022-12-09T03:42:43.121Z,98572.09
2022-12-09T03:47:35.955Z,98573.41
2022-12-09T03:52:40.808Z,98566.63
2022-12-09T03:57:37.696Z,98567.31
2022-12-09T04:02:29.801Z,98567.50
2022-12-09T04:07:22.180Z,98565.00
2022-12-09T04:12:14.034Z,98563.34
2022-12-09T04:17:05.832Z,98576.81
2022-12-09T04:21:57.682Z,98566.84
2022-12-09T04:26:49.432Z,98558.56
2022-12-09T04:31:41.505Z,98571.53
2022-12-09T04:36:33.449Z,98559.38
2022-12-09T04:41:25.363Z,98567.69
2022-12-09T04:46:18.654Z,98567.03
2022-12-09T04:51:12.533Z,98567.38
2022-12-09T04:56:19.072Z,98562.88
2022-12-09T05:01:31.134Z,98560.22
2022-12-09T05:06:23.905Z,98552.59
2022-12-09T05:11:17.178Z,98556.91
2022-12-09T05:16:16.312Z,98560.59
2022-12-09T05:21:14.419Z,98557.25
2022-12-09T05:26:08.343Z,98550.28
2022-12-09T05:31:04.839Z,98547.97
2022-12-09T05:35:57.395Z,98552.31
2022-12-09T05:40:49.244Z,98555.47
2022-12-09T05:45:41.456Z,98562.09
2022-12-09T05:50:33.591Z,98562.78
2022-12-09T05:55:25.795Z,98551.19
2022-12-09T06:00:18.167Z,98562.13
2022-12-09T06:05:10.300Z,98559.28
2022-12-09T06:10:03.115Z,98549.16
2022-12-09T06:14:55.044Z,98558.31
2022-12-09T06:19:46.849Z,98558.66
2022-12-09T06:24:38.860Z,98553.31
2022-12-09T06:29:30.827Z,98558.63
2022-12-09T06:34:23.814Z,98553.66
2022-12-09T06:39:15.909Z,98565.28
2022-12-09T06:44:08.015Z,98554.47
2022-12-09T06:49:00.228Z,98553.31
2022-12-09T06:53:52.731Z,98556.97
2022-12-09T06:58:46.543Z,98561.78
2022-12-09T07:03:38.609Z,98548.66
2022-12-09T07:08:30.979Z,98557.94
2022-12-09T07:13:22.920Z,98556.59
2022-12-09T07:18:15.286Z,98554.13
2022-12-09T07:23:07.163Z,98562.41
2022-12-09T07:27:58.898Z,98558.44
2022-12-09T07:32:50.934Z,98558.59
2022-12-09T07:37:43.245Z,98552.28
2022-12-09T07:42:36.587Z,98550.25
2022-12-09T07:47:28.803Z,98555.41
2022-12-09T07:52:21.059Z,98553.56
2022-12-09T07:57:13.136Z,98552.75
2022-12-09T08:02:06.760Z,98543.81
2022-12-09T08:06:59.743Z,98545.66
2022-12-09T08:11:51.746Z,98548.97
2022-12-09T08:16:44.141Z,98549.47
2022-12-09T08:21:36.814Z,98553.28
2022-12-09T08:26:31.498Z,98547.81
2022-12-09T08:31:25.682Z,98545.66
2022-12-09T08:36:26.608Z,98546.50
2022-12-09T08:41:38.691Z,98552.16
2022-12-09T08:46:32.260Z,98552.81
2022-12-09T08:51:24.898Z,98551.66
2022-12-09T08:56:16.877Z,98553.81
2022-12-09T09:01:18.878Z,98546.19
2022-12-09T09:06:11.442Z,98554.66
2022-12-09T09:11:10.476Z,98547.66
2022-12-09T09:16:02.710Z,98550.34
2022-12-09T09:20:59.595Z,98553.97
2022-12-09T09:25:52.926Z,98546.44
2022-12-09T09:30:44.794Z,98542.28
2022-12-09T09:35:36.713Z,98542.75
2022-12-09T09:40:29.617Z,98540.81
2022-12-09T09:45:23.500Z,98538.81
2022-12-09T09:50:36.278Z,98538.69
2022-12-09T09:55:44.638Z,98533.78
2022-12-09T10:01:04.406Z,98527.72
2022-12-09T10:06:02.935Z,98527.72
2022-12-09T10:11:20.139Z,98518.84
2022-12-09T10:17:09.621Z,98517.50
2022-12-09T10:22:18.735Z,98514.84
2022-12-09T10:27:44.656Z,98509.72
2022-12-09T10:32:38.349Z,98507.03
2022-12-09T10:37:36.318Z,98501.59
2022-12-09T10:42:47.818Z,98496.63
2022-12-09T10:47:40.406Z,98492.25
2022-12-09T10:52:44.646Z,98496.28
2022-12-09T10:57:36.853Z,98492.50
2022-12-09T11:02:30.279Z,98495.38
2022-12-09T11:07:26.097Z,98498.47
2022-12-09T11:12:28.575Z,98488.50
2022-12-09T11:17:25.199Z,98499.13
2022-12-09T11:22:43.422Z,98494.06
2022-12-09T11:27:35.463Z,98491.66
2022-12-09T11:32:27.695Z,98493.50
2022-12-09T11:37:19.464Z,98492.63
2022-12-09T11:42:20.067Z,98487.16
2022-12-09T11:47:20.276Z,98486.28
2022-12-09T11:52:18.253Z,98492.44
2022-12-09T11:57:27.245Z,98482.03
2022-12-09T12:02:24.935Z,98477.19
2022-12-09T12:07:27.909Z,98487.44
2022-12-09T12:12:43.257Z,98480.31
2022-12-09T12:17:41.343Z,98478.81
2022-12-09T12:22:36.336Z,98473.31
2022-12-09T12:28:03.321Z,98475.06
2022-12-09T12:38:55.377Z,98469.38
2022-12-09T12:44:21.102Z,98456.53
2022-12-09T12:49:39.165Z,98452.78
2022-12-09T12:54:45.477Z,98449.47
2022-12-09T12:59:40.085Z,98436.03
2022-12-09T13:05:00.083Z,98438.13
2022-12-09T13:10:04.522Z,98436.06
2022-12-09T13:14:56.501Z,98432.38
2022-12-09T13:19:52.590Z,98428.91
2022-12-09T13:24:59.818Z,98424.75
2022-12-09T13:30:10.891Z,98420.84
2022-12-09T13:35:13.773Z,98422.50
2022-12-09T13:40:39.048Z,98430.13
2022-12-09T13:45:36.180Z,98419.81
2022-12-09T13:50:41.821Z,98422.75
2022-12-09T13:55:49.878Z,98424.41
2022-12-09T14:00:44.237Z,98418.41
2022-12-09T14:05:37.070Z,98424.63
2022-12-09T14:10:45.416Z,98415.78
2022-12-09T14:15:38.359Z,98410.84
2022-12-09T14:20:36.947Z,98422.22
2022-12-09T14:25:29.336Z,98420.75
2022-12-09T14:31:10.551Z,98421.38
2022-12-09T14:36:20.522Z,98412.91
2022-12-09T14:41:21.221Z,98422.84
2022-12-09T14:46:35.734Z,98432.75
2022-12-09T14:51:27.683Z,98422.03
2022-12-09T14:56:21.861Z,98414.38
2022-12-09T15:01:13.597Z,98428.41
2022-12-09T15:06:12.410Z,98423.66
2022-12-09T15:11:19.690Z,98437.72
2022-12-09T15:16:18.179Z,98433.97
2022-12-09T15:21:10.507Z,98438.31
2022-12-09T15:26:06.723Z,98435.22
2022-12-09T15:31:18.473Z,98431.69
2022-12-09T15:36:12.929Z,98441.22
2022-12-09T15:41:26.765Z,98443.06
2022-12-09T15:46:18.587Z,98446.78
2022-12-09T15:51:17.987Z,98453.41
2022-12-09T15:56:18.302Z,98445.31
2022-12-09T16:01:10.335Z,98438.09
2022-12-09T16:06:09.676Z,98444.94
2022-12-09T16:11:01.776Z,98443.47
2022-12-09T16:15:56.112Z,98443.44
2022-12-09T16:21:01.669Z,98438.69
2022-12-09T16:26:03.144Z,98439.50
2022-12-09T16:31:01.623Z,98450.44
2022-12-09T16:36:00.232Z,98454.13
2022-12-09T16:40:54.404Z,98453.06
2022-12-09T16:46:00.939Z,98453.25
2022-12-09T16:51:13.457Z,98446.84
2022-12-09T16:56:05.410Z,98448.50
2022-12-09T17:00:58.738Z,98445.81
2022-12-09T17:05:50.527Z,98451.19
2022-12-09T17:10:43.009Z,98443.97
2022-12-09T17:15:34.726Z,98454.06
2022-12-09T17:20:28.112Z,98456.50
2022-12-09T17:25:19.894Z,98446.78
2022-12-09T17:30:12.234Z,98442.47
2022-12-09T17:35:10.669Z,98439.13
2022-12-09T17:40:04.632Z,98433.38
2022-12-09T17:44:56.353Z,98437.06
2022-12-09T17:49:48.005Z,98444.09
2022-12-09T17:54:39.697Z,98441.00
2022-12-09T17:59:31.537Z,98442.47
2022-12-09T18:04:23.224Z,98447.81
2022-12-09T18:09:17.797Z,98447.81
2022-12-09T18:14:10.403Z,98436.84
2022-12-09T18:19:09.877Z,98433.75
2022-12-09T18:24:01.646Z,98437.16
2022-12-09T18:28:57.196Z,98433.66
2022-12-09T18:33:49.022Z,98433.19
2022-12-09T18:38:42.300Z,98434.19
2022-12-09T18:43:37.640Z,98439.91
2022-12-09T18:48:30.896Z,98445.06
2022-12-09T18:53:22.929Z,98435.16
2022-12-09T18:58:14.848Z,98449.59
2022-12-09T19:03:06.735Z,98441.31
2022-12-09T19:07:58.544Z,98436.31
2022-12-09T19:12:56.363Z,98434.22
2022-12-09T19:17:48.492Z,98439.19
2022-12-09T19:22:40.213Z,98439.19
2022-12-09T19:27:31.848Z,98439.97
2022-12-09T19:32:51.823Z,98439.09
2022-12-09T19:37:35.806Z,98434.13
2022-12-09T19:42:27.417Z,98435.16
2022-12-09T19:47:19.162Z,98441.53
2022-12-09T19:52:12.222Z,98442.09
2022-12-09T19:57:04.254Z,98446.84
2022-12-09T20:01:56.181Z,98456.44
2022-12-09T20:06:48.162Z,98464.41
2022-12-09T20:11:41.769Z,98465.81
2022-12-09T20:16:34.199Z,98460.66
2022-12-09T20:21:26.629Z,98462.31
2022-12-09T20:26:20.025Z,98461.75
2022-12-09T20:31:17.891Z,98460.50
2022-12-09T20:36:14.472Z,98464.66
2022-12-09T20:41:12.314Z,98470.59
2022-12-09T20:46:15.016Z,98474.25
2022-12-09T20:51:08.794Z,98469.56
2022-12-09T20:56:01.634Z,98469.56
2022-12-09T21:00:53.470Z,98474.91
2022-12-09T21:05:45.347Z,98462.81
2022-12-09T21:10:37.149Z,98460.31
2022-12-09T21:15:29.668Z,98458.50
2022-12-09T21:20:24.434Z,98465.66
2022-12-09T21:25:16.249Z,98470.38
2022-12-09T21:30:08.922Z,98470.97
2022-12-09T21:35:02.211Z,98466.00
2022-12-09T21:39:53.974Z,98464.28
2022-12-09T21:44:45.793Z,98464.88
2022-12-09T21:49:37.609Z,98467.28
2022-12-09T21:54:29.383Z,98468.88
2022-12-09T21:59:21.233Z,98470.00
2022-12-09T22:04:16.345Z,98469.28
2022-12-09T22:09:09.145Z,98478.06
2022-12-09T22:14:01.656Z,98484.44
2022-12-09T22:18:55.222Z,98477.44
2022-12-09T22:23:47.020Z,98483.97
2022-12-09T22:28:39.473Z,98478.63
2022-12-09T22:33:31.268Z,98484.25
2022-12-09T22:38:23.212Z,98484.25
2022-12-09T22:43:14.889Z,98486.28
2022-12-09T22:48:06.650Z,98482.78
2022-12-09T22:52:58.309Z,98476.81
2022-12-09T22:57:51.969Z,98478.38
2022-12-09T23:02:43.686Z,98473.22
2022-12-09T23:07:35.936Z,98468.25
2022-12-09T23:12:27.973Z,98470.75
2022-12-09T23:17:19.789Z,98468.25
2022-12-09T23:22:11.434Z,98470.31
2022-12-09T23:27:03.237Z,98457.50
2022-12-09T23:31:54.926Z,98460.81
2022-12-09T23:36:46.794Z,98452.81
2022-12-09T23:41:40.350Z,98458.16
2022-12-09T23:46:32.150Z,98452.00
2022-12-09T23:51:29.781Z,98450.69
2022-12-09T23:56:24.662Z,98446.09
